sensor_id;sensor_type;location;lat;lon;timestamp;P1;durP1;ratioP1;P2;durP2;ratioP2
56075;SDS011;41951;49.022;12.066;2023-06-22T00:00:47;8.40;;;6.05;;
56075;SDS011;41951;49.022;12.066;2023-06-22T00:03:13;13.23;;;7.18;;
56075;SDS011;41951;49.022;12.066;2023-06-22T00:05:39;10.60;;;6.38;;
56075;SDS011;41951;49.022;12.066;2023-06-22T00:08:04;13.00;;;6.38;;
56075;SDS011;41951;49.022;12.066;2023-06-22T00:10:30;10.85;;;6.55;;
56075;SDS011;41951;49.022;12.066;2023-06-22T00:12:56;9.20;;;6.45;;
56075;SDS011;41951;49.022;12.066;2023-06-22T00:15:21;10.48;;;7.82;;
56075;SDS011;41951;49.022;12.066;2023-06-22T00:17:47;13.23;;;8.15;;
56075;SDS011;41951;49.022;12.066;2023-06-22T00:20:14;13.25;;;9.18;;
56075;SDS011;41951;49.022;12.066;2023-06-22T00:22:40;17.13;;;9.35;;
56075;SDS011;41951;49.022;12.066;2023-06-22T00:25:06;13.75;;;9.18;;
56075;SDS011;41951;49.022;12.066;2023-06-22T00:27:32;12.27;;;8.35;;
56075;SDS011;41951;49.022;12.066;2023-06-22T00:29:58;11.85;;;8.18;;
56075;SDS011;41951;49.022;12.066;2023-06-22T00:32:23;11.30;;;8.23;;
56075;SDS011;41951;49.022;12.066;2023-06-22T00:34:49;16.25;;;8.90;;
56075;SDS011;41951;49.022;12.066;2023-06-22T00:37:15;12.55;;;8.82;;
56075;SDS011;41951;49.022;12.066;2023-06-22T00:39:42;13.15;;;7.82;;
56075;SDS011;41951;49.022;12.066;2023-06-22T00:42:08;12.45;;;8.73;;
56075;SDS011;41951;49.022;12.066;2023-06-22T00:44:34;14.63;;;8.18;;
56075;SDS011;41951;49.022;12.066;2023-06-22T00:47:00;14.82;;;7.82;;
56075;SDS011;41951;49.022;12.066;2023-06-22T00:49:27;15.05;;;7.88;;
56075;SDS011;41951;49.022;12.066;2023-06-22T00:51:53;11.63;;;6.95;;
56075;SDS011;41951;49.022;12.066;2023-06-22T00:54:19;11.75;;;7.03;;
56075;SDS011;41951;49.022;12.066;2023-06-22T00:56:49;10.00;;;6.38;;
56075;SDS011;41951;49.022;12.066;2023-06-22T00:59:20;10.23;;;6.25;;
56075;SDS011;41951;49.022;12.066;2023-06-22T01:01:46;11.05;;;6.75;;
56075;SDS011;41951;49.022;12.066;2023-06-22T01:04:12;12.65;;;7.57;;
56075;SDS011;41951;49.022;12.066;2023-06-22T01:06:52;12.05;;;6.40;;
56075;SDS011;41951;49.022;12.066;2023-06-22T01:09:27;11.38;;;7.07;;
56075;SDS011;41951;49.022;12.066;2023-06-22T01:11:57;9.80;;;6.57;;
56075;SDS011;41951;49.022;12.066;2023-06-22T01:14:36;11.75;;;6.63;;
56075;SDS011;41951;49.022;12.066;2023-06-22T01:17:07;13.68;;;7.28;;
56075;SDS011;41951;49.022;12.066;2023-06-22T01:22:04;12.15;;;7.38;;
56075;SDS011;41951;49.022;12.066;2023-06-22T01:27:32;13.70;;;7.30;;
56075;SDS011;41951;49.022;12.066;2023-06-22T01:30:10;11.23;;;6.22;;
56075;SDS011;41951;49.022;12.066;2023-06-22T01:32:37;13.88;;;8.02;;
56075;SDS011;41951;49.022;12.066;2023-06-22T01:35:05;10.63;;;6.82;;
56075;SDS011;41951;49.022;12.066;2023-06-22T01:37:33;13.43;;;7.85;;
56075;SDS011;41951;49.022;12.066;2023-06-22T01:40:01;12.27;;;7.13;;
56075;SDS011;41951;49.022;12.066;2023-06-22T01:42:29;9.38;;;7.05;;
56075;SDS011;41951;49.022;12.066;2023-06-22T01:44:56;16.40;;;7.18;;
56075;SDS011;41951;49.022;12.066;2023-06-22T01:47:23;8.90;;;6.93;;
56075;SDS011;41951;49.022;12.066;2023-06-22T01:49:49;10.85;;;6.78;;
56075;SDS011;41951;49.022;12.066;2023-06-22T01:52:19;11.95;;;7.13;;
56075;SDS011;41951;49.022;12.066;2023-06-22T01:54:46;13.93;;;6.88;;
56075;SDS011;41951;49.022;12.066;2023-06-22T01:57:12;11.90;;;7.55;;
56075;SDS011;41951;49.022;12.066;2023-06-22T02:02:08;15.25;;;7.20;;
56075;SDS011;41951;49.022;12.066;2023-06-22T02:04:41;11.77;;;7.13;;
56075;SDS011;41951;49.022;12.066;2023-06-22T02:07:17;10.70;;;7.15;;
56075;SDS011;41951;49.022;12.066;2023-06-22T02:09:45;12.18;;;7.53;;
56075;SDS011;41951;49.022;12.066;2023-06-22T02:12:13;12.10;;;7.78;;
56075;SDS011;41951;49.022;12.066;2023-06-22T02:14:42;15.75;;;8.50;;
56075;SDS011;41951;49.022;12.066;2023-06-22T02:17:09;11.95;;;8.10;;
56075;SDS011;41951;49.022;12.066;2023-06-22T02:19:36;13.98;;;8.98;;
56075;SDS011;41951;49.022;12.066;2023-06-22T02:22:02;11.32;;;9.00;;
56075;SDS011;41951;49.022;12.066;2023-06-22T02:24:28;12.57;;;9.10;;
56075;SDS011;41951;49.022;12.066;2023-06-22T02:26:57;12.93;;;8.75;;
56075;SDS011;41951;49.022;12.066;2023-06-22T02:29:23;18.02;;;9.60;;
56075;SDS011;41951;49.022;12.066;2023-06-22T02:31:49;15.75;;;9.27;;
56075;SDS011;41951;49.022;12.066;2023-06-22T02:34:14;14.95;;;9.73;;
56075;SDS011;41951;49.022;12.066;2023-06-22T02:36:44;16.17;;;9.80;;
56075;SDS011;41951;49.022;12.066;2023-06-22T02:39:24;15.75;;;9.32;;
56075;SDS011;41951;49.022;12.066;2023-06-22T02:41:51;15.55;;;9.88;;
56075;SDS011;41951;49.022;12.066;2023-06-22T02:44:17;15.38;;;9.30;;
56075;SDS011;41951;49.022;12.066;2023-06-22T02:46:43;13.63;;;8.88;;
56075;SDS011;41951;49.022;12.066;2023-06-22T02:49:10;11.07;;;7.32;;
56075;SDS011;41951;49.022;12.066;2023-06-22T02:51:38;11.40;;;7.55;;
56075;SDS011;41951;49.022;12.066;2023-06-22T02:54:05;11.77;;;7.40;;
56075;SDS011;41951;49.022;12.066;2023-06-22T02:56:31;10.10;;;6.93;;
56075;SDS011;41951;49.022;12.066;2023-06-22T02:58:56;10.23;;;7.20;;
56075;SDS011;41951;49.022;12.066;2023-06-22T03:01:29;9.00;;;6.32;;
56075;SDS011;41951;49.022;12.066;2023-06-22T03:04:04;12.93;;;8.90;;
56075;SDS011;41951;49.022;12.066;2023-06-22T03:06:34;19.33;;;9.18;;
56075;SDS011;41951;49.022;12.066;2023-06-22T03:09:01;12.45;;;8.85;;
56075;SDS011;41951;49.022;12.066;2023-06-22T03:11:28;20.20;;;9.48;;
56075;SDS011;41951;49.022;12.066;2023-06-22T03:13:55;12.10;;;7.72;;
56075;SDS011;41951;49.022;12.066;2023-06-22T03:16:20;13.98;;;8.10;;
56075;SDS011;41951;49.022;12.066;2023-06-22T03:18:46;16.85;;;9.40;;
56075;SDS011;41951;49.022;12.066;2023-06-22T03:21:12;16.27;;;10.57;;
56075;SDS011;41951;49.022;12.066;2023-06-22T03:23:37;14.75;;;9.90;;
56075;SDS011;41951;49.022;12.066;2023-06-22T03:26:03;11.23;;;9.55;;
56075;SDS011;41951;49.022;12.066;2023-06-22T03:28:29;12.57;;;8.48;;
56075;SDS011;41951;49.022;12.066;2023-06-22T03:30:56;11.10;;;7.90;;
56075;SDS011;41951;49.022;12.066;2023-06-22T03:33:22;12.57;;;7.25;;
56075;SDS011;41951;49.022;12.066;2023-06-22T03:35:48;10.70;;;8.13;;
56075;SDS011;41951;49.022;12.066;2023-06-22T03:38:15;11.98;;;7.90;;
56075;SDS011;41951;49.022;12.066;2023-06-22T03:40:41;16.98;;;8.80;;
56075;SDS011;41951;49.022;12.066;2023-06-22T03:43:07;14.43;;;8.32;;
56075;SDS011;41951;49.022;12.066;2023-06-22T03:45:32;14.48;;;8.48;;
56075;SDS011;41951;49.022;12.066;2023-06-22T03:47:58;13.10;;;8.77;;
56075;SDS011;41951;49.022;12.066;2023-06-22T03:50:25;11.35;;;8.43;;
56075;SDS011;41951;49.022;12.066;2023-06-22T03:52:50;14.45;;;8.63;;
56075;SDS011;41951;49.022;12.066;2023-06-22T03:55:19;12.32;;;8.63;;
56075;SDS011;41951;49.022;12.066;2023-06-22T03:57:45;13.38;;;9.27;;
56075;SDS011;41951;49.022;12.066;2023-06-22T04:00:11;14.68;;;8.40;;
56075;SDS011;41951;49.022;12.066;2023-06-22T04:02:37;15.20;;;8.30;;
56075;SDS011;41951;49.022;12.066;2023-06-22T04:05:03;17.83;;;9.15;;
56075;SDS011;41951;49.022;12.066;2023-06-22T04:07:28;15.82;;;10.57;;
56075;SDS011;41951;49.022;12.066;2023-06-22T04:09:54;16.08;;;10.50;;
56075;SDS011;41951;49.022;12.066;2023-06-22T04:12:19;15.27;;;10.63;;
56075;SDS011;41951;49.022;12.066;2023-06-22T04:14:45;20.75;;;11.52;;
56075;SDS011;41951;49.022;12.066;2023-06-22T04:17:10;17.40;;;11.27;;
56075;SDS011;41951;49.022;12.066;2023-06-22T04:19:39;14.40;;;10.35;;
56075;SDS011;41951;49.022;12.066;2023-06-22T04:22:04;17.20;;;10.95;;
56075;SDS011;41951;49.022;12.066;2023-06-22T04:24:32;13.77;;;10.60;;
56075;SDS011;41951;49.022;12.066;2023-06-22T04:26:58;14.80;;;10.50;;
56075;SDS011;41951;49.022;12.066;2023-06-22T04:29:27;14.95;;;8.40;;
56075;SDS011;41951;49.022;12.066;2023-06-22T04:31:55;16.35;;;10.30;;
56075;SDS011;41951;49.022;12.066;2023-06-22T04:34:23;12.48;;;9.55;;
56075;SDS011;41951;49.022;12.066;2023-06-22T04:36:51;12.77;;;9.48;;
56075;SDS011;41951;49.022;12.066;2023-06-22T04:39:16;12.88;;;10.35;;
56075;SDS011;41951;49.022;12.066;2023-06-22T04:41:44;16.60;;;9.95;;
56075;SDS011;41951;49.022;12.066;2023-06-22T04:44:18;15.38;;;10.43;;
56075;SDS011;41951;49.022;12.066;2023-06-22T04:46:56;12.57;;;9.57;;
56075;SDS011;41951;49.022;12.066;2023-06-22T04:49:26;13.23;;;8.80;;
56075;SDS011;41951;49.022;12.066;2023-06-22T04:51:57;13.65;;;8.95;;
56075;SDS011;41951;49.022;12.066;2023-06-22T04:54:24;9.93;;;8.02;;
56075;SDS011;41951;49.022;12.066;2023-06-22T04:56:49;11.60;;;8.32;;
56075;SDS011;41951;49.022;12.066;2023-06-22T04:59:21;10.00;;;7.80;;
56075;SDS011;41951;49.022;12.066;2023-06-22T05:01:47;12.73;;;7.60;;
56075;SDS011;41951;49.022;12.066;2023-06-22T05:04:13;10.75;;;7.93;;
56075;SDS011;41951;49.022;12.066;2023-06-22T05:06:38;10.98;;;7.70;;
56075;SDS011;41951;49.022;12.066;2023-06-22T05:09:04;11.57;;;7.82;;
56075;SDS011;41951;49.022;12.066;2023-06-22T05:11:30;11.35;;;7.72;;
56075;SDS011;41951;49.022;12.066;2023-06-22T05:13:56;10.85;;;7.30;;
56075;SDS011;41951;49.022;12.066;2023-06-22T05:16:21;12.07;;;9.18;;
56075;SDS011;41951;49.022;12.066;2023-06-22T05:18:55;13.02;;;8.65;;
56075;SDS011;41951;49.022;12.066;2023-06-22T05:21:21;13.50;;;8.15;;
56075;SDS011;41951;49.022;12.066;2023-06-22T05:23:48;11.68;;;7.45;;
56075;SDS011;41951;49.022;12.066;2023-06-22T05:26:14;10.68;;;8.18;;
56075;SDS011;41951;49.022;12.066;2023-06-22T05:28:40;10.43;;;8.05;;
56075;SDS011;41951;49.022;12.066;2023-06-22T05:31:05;11.48;;;8.05;;
56075;SDS011;41951;49.022;12.066;2023-06-22T05:33:31;9.35;;;7.57;;
56075;SDS011;41951;49.022;12.066;2023-06-22T05:35:56;10.77;;;7.88;;
56075;SDS011;41951;49.022;12.066;2023-06-22T05:38:22;9.27;;;7.15;;
56075;SDS011;41951;49.022;12.066;2023-06-22T05:40:48;11.05;;;8.73;;
56075;SDS011;41951;49.022;12.066;2023-06-22T05:43:14;10.82;;;7.30;;
56075;SDS011;41951;49.022;12.066;2023-06-22T05:45:39;9.93;;;7.28;;
56075;SDS011;41951;49.022;12.066;2023-06-22T05:48:05;13.68;;;7.70;;
56075;SDS011;41951;49.022;12.066;2023-06-22T05:50:31;10.35;;;7.03;;
56075;SDS011;41951;49.022;12.066;2023-06-22T05:52:56;11.57;;;7.65;;
56075;SDS011;41951;49.022;12.066;2023-06-22T05:55:22;10.88;;;7.10;;
56075;SDS011;41951;49.022;12.066;2023-06-22T05:57:47;12.63;;;7.13;;
56075;SDS011;41951;49.022;12.066;2023-06-22T06:00:13;13.63;;;7.35;;
56075;SDS011;41951;49.022;12.066;2023-06-22T06:02:39;12.30;;;7.55;;
56075;SDS011;41951;49.022;12.066;2023-06-22T06:05:08;9.70;;;7.07;;
56075;SDS011;41951;49.022;12.066;2023-06-22T06:07:35;11.18;;;7.35;;
56075;SDS011;41951;49.022;12.066;2023-06-22T06:10:02;9.77;;;7.40;;
56075;SDS011;41951;49.022;12.066;2023-06-22T06:12:29;12.00;;;8.07;;
56075;SDS011;41951;49.022;12.066;2023-06-22T06:14:55;10.13;;;8.00;;
56075;SDS011;41951;49.022;12.066;2023-06-22T06:17:21;11.32;;;6.40;;
56075;SDS011;41951;49.022;12.066;2023-06-22T06:19:47;11.27;;;7.47;;
56075;SDS011;41951;49.022;12.066;2023-06-22T06:22:12;10.45;;;7.45;;
56075;SDS011;41951;49.022;12.066;2023-06-22T06:24:38;11.30;;;7.20;;
56075;SDS011;41951;49.022;12.066;2023-06-22T06:27:03;10.13;;;6.55;;
56075;SDS011;41951;49.022;12.066;2023-06-22T06:29:30;9.77;;;7.43;;
56075;SDS011;41951;49.022;12.066;2023-06-22T06:31:56;9.20;;;6.93;;
56075;SDS011;41951;49.022;12.066;2023-06-22T06:34:22;9.80;;;6.50;;
56075;SDS011;41951;49.022;12.066;2023-06-22T06:36:47;12.80;;;7.30;;
56075;SDS011;41951;49.022;12.066;2023-06-22T06:39:13;9.82;;;6.32;;
56075;SDS011;41951;49.022;12.066;2023-06-22T06:41:39;8.77;;;6.70;;
56075;SDS011;41951;49.022;12.066;2023-06-22T06:44:04;9.25;;;6.35;;
56075;SDS011;41951;49.022;12.066;2023-06-22T06:46:30;8.48;;;6.38;;
56075;SDS011;41951;49.022;12.066;2023-06-22T06:48:55;12.90;;;6.95;;
56075;SDS011;41951;49.022;12.066;2023-06-22T06:51:21;10.45;;;6.78;;
56075;SDS011;41951;49.022;12.066;2023-06-22T06:53:46;10.68;;;7.18;;
56075;SDS011;41951;49.022;12.066;2023-06-22T06:56:12;8.75;;;6.63;;
56075;SDS011;41951;49.022;12.066;2023-06-22T06:58:40;10.98;;;6.55;;
56075;SDS011;41951;49.022;12.066;2023-06-22T07:01:07;8.55;;;5.88;;
56075;SDS011;41951;49.022;12.066;2023-06-22T07:03:33;11.77;;;6.13;;
56075;SDS011;41951;49.022;12.066;2023-06-22T07:05:59;9.60;;;5.95;;
56075;SDS011;41951;49.022;12.066;2023-06-22T07:08:24;9.00;;;5.82;;
56075;SDS011;41951;49.022;12.066;2023-06-22T07:10:51;9.48;;;6.38;;
56075;SDS011;41951;49.022;12.066;2023-06-22T07:13:17;10.35;;;5.97;;
56075;SDS011;41951;49.022;12.066;2023-06-22T07:15:43;12.02;;;5.68;;
56075;SDS011;41951;49.022;12.066;2023-06-22T07:18:08;8.82;;;5.90;;
56075;SDS011;41951;49.022;12.066;2023-06-22T07:20:34;10.32;;;6.35;;
56075;SDS011;41951;49.022;12.066;2023-06-22T07:22:59;8.65;;;6.38;;
56075;SDS011;41951;49.022;12.066;2023-06-22T07:25:25;7.55;;;5.82;;
56075;SDS011;41951;49.022;12.066;2023-06-22T07:28:04;8.68;;;5.90;;
56075;SDS011;41951;49.022;12.066;2023-06-22T07:30:31;10.55;;;6.47;;
56075;SDS011;41951;49.022;12.066;2023-06-22T07:32:58;8.18;;;5.63;;
56075;SDS011;41951;49.022;12.066;2023-06-22T07:35:28;7.70;;;5.93;;
56075;SDS011;41951;49.022;12.066;2023-06-22T07:37:54;9.35;;;5.78;;
56075;SDS011;41951;49.022;12.066;2023-06-22T07:40:20;5.93;;;4.80;;
56075;SDS011;41951;49.022;12.066;2023-06-22T07:42:46;8.25;;;5.32;;
56075;SDS011;41951;49.022;12.066;2023-06-22T07:45:13;8.73;;;5.15;;
56075;SDS011;41951;49.022;12.066;2023-06-22T07:47:39;8.52;;;4.97;;
56075;SDS011;41951;49.022;12.066;2023-06-22T07:50:05;11.00;;;5.80;;
56075;SDS011;41951;49.022;12.066;2023-06-22T07:52:31;7.75;;;5.05;;
56075;SDS011;41951;49.022;12.066;2023-06-22T07:54:57;8.20;;;5.18;;
56075;SDS011;41951;49.022;12.066;2023-06-22T07:57:23;7.60;;;5.07;;
56075;SDS011;41951;49.022;12.066;2023-06-22T07:59:56;7.53;;;4.85;;
56075;SDS011;41951;49.022;12.066;2023-06-22T08:02:23;9.82;;;5.50;;
56075;SDS011;41951;49.022;12.066;2023-06-22T08:04:48;10.07;;;5.25;;
56075;SDS011;41951;49.022;12.066;2023-06-22T08:07:14;8.10;;;4.85;;
56075;SDS011;41951;49.022;12.066;2023-06-22T08:09:42;7.13;;;5.15;;
56075;SDS011;41951;49.022;12.066;2023-06-22T08:12:11;10.07;;;4.82;;
56075;SDS011;41951;49.022;12.066;2023-06-22T08:14:38;10.85;;;4.95;;
56075;SDS011;41951;49.022;12.066;2023-06-22T08:17:04;9.15;;;5.20;;
56075;SDS011;41951;49.022;12.066;2023-06-22T08:19:29;9.48;;;5.43;;
56075;SDS011;41951;49.022;12.066;2023-06-22T08:21:55;10.38;;;4.82;;
56075;SDS011;41951;49.022;12.066;2023-06-22T08:24:22;9.27;;;4.30;;
56075;SDS011;41951;49.022;12.066;2023-06-22T08:26:47;9.55;;;4.40;;
56075;SDS011;41951;49.022;12.066;2023-06-22T08:29:14;10.88;;;4.65;;
56075;SDS011;41951;49.022;12.066;2023-06-22T08:31:40;10.48;;;4.95;;
56075;SDS011;41951;49.022;12.066;2023-06-22T08:34:06;7.38;;;4.47;;
56075;SDS011;41951;49.022;12.066;2023-06-22T08:36:31;7.38;;;4.25;;
56075;SDS011;41951;49.022;12.066;2023-06-22T08:39:02;14.25;;;4.78;;
56075;SDS011;41951;49.022;12.066;2023-06-22T08:41:28;8.68;;;4.30;;
56075;SDS011;41951;49.022;12.066;2023-06-22T08:43:54;7.45;;;4.13;;
56075;SDS011;41951;49.022;12.066;2023-06-22T08:46:20;7.07;;;4.13;;
56075;SDS011;41951;49.022;12.066;2023-06-22T08:48:48;10.10;;;4.55;;
56075;SDS011;41951;49.022;12.066;2023-06-22T08:51:15;10.25;;;4.28;;
56075;SDS011;41951;49.022;12.066;2023-06-22T08:53:42;9.25;;;4.40;;
56075;SDS011;41951;49.022;12.066;2023-06-22T08:56:08;9.27;;;4.30;;
56075;SDS011;41951;49.022;12.066;2023-06-22T08:58:33;9.50;;;4.60;;
56075;SDS011;41951;49.022;12.066;2023-06-22T09:00:59;6.72;;;4.00;;
56075;SDS011;41951;49.022;12.066;2023-06-22T09:03:26;8.30;;;4.05;;
56075;SDS011;41951;49.022;12.066;2023-06-22T09:05:52;6.95;;;4.28;;
56075;SDS011;41951;49.022;12.066;2023-06-22T09:08:17;11.68;;;4.45;;
56075;SDS011;41951;49.022;12.066;2023-06-22T09:10:43;6.82;;;4.10;;
56075;SDS011;41951;49.022;12.066;2023-06-22T09:13:08;13.48;;;5.47;;
56075;SDS011;41951;49.022;12.066;2023-06-22T09:15:34;7.22;;;4.50;;
56075;SDS011;41951;49.022;12.066;2023-06-22T09:18:00;10.63;;;4.50;;
56075;SDS011;41951;49.022;12.066;2023-06-22T09:20:25;11.35;;;4.55;;
56075;SDS011;41951;49.022;12.066;2023-06-22T09:22:51;6.53;;;4.40;;
56075;SDS011;41951;49.022;12.066;2023-06-22T09:25:16;7.72;;;4.13;;
56075;SDS011;41951;49.022;12.066;2023-06-22T09:27:45;11.75;;;4.63;;
56075;SDS011;41951;49.022;12.066;2023-06-22T09:30:11;8.75;;;4.55;;
56075;SDS011;41951;49.022;12.066;2023-06-22T09:32:37;12.27;;;4.20;;
56075;SDS011;41951;49.022;12.066;2023-06-22T09:35:03;9.40;;;4.28;;
56075;SDS011;41951;49.022;12.066;2023-06-22T09:37:34;7.78;;;3.75;;
56075;SDS011;41951;49.022;12.066;2023-06-22T09:40:00;7.53;;;4.05;;
56075;SDS011;41951;49.022;12.066;2023-06-22T09:42:26;8.70;;;4.07;;
56075;SDS011;41951;49.022;12.066;2023-06-22T09:44:52;9.93;;;4.20;;
56075;SDS011;41951;49.022;12.066;2023-06-22T09:47:17;10.75;;;4.80;;
56075;SDS011;41951;49.022;12.066;2023-06-22T09:49:43;8.60;;;4.10;;
56075;SDS011;41951;49.022;12.066;2023-06-22T09:52:08;9.32;;;4.70;;
56075;SDS011;41951;49.022;12.066;2023-06-22T09:54:34;10.70;;;4.40;;
56075;SDS011;41951;49.022;12.066;2023-06-22T09:56:59;7.53;;;4.65;;
56075;SDS011;41951;49.022;12.066;2023-06-22T09:59:25;9.95;;;4.28;;
56075;SDS011;41951;49.022;12.066;2023-06-22T10:01:51;13.38;;;4.70;;
56075;SDS011;41951;49.022;12.066;2023-06-22T10:04:16;9.57;;;4.93;;
56075;SDS011;41951;49.022;12.066;2023-06-22T10:06:42;7.75;;;4.53;;
56075;SDS011;41951;49.022;12.066;2023-06-22T10:09:07;15.20;;;5.15;;
56075;SDS011;41951;49.022;12.066;2023-06-22T10:11:33;9.75;;;3.95;;
56075;SDS011;41951;49.022;12.066;2023-06-22T10:14:00;9.02;;;4.63;;
56075;SDS011;41951;49.022;12.066;2023-06-22T10:16:32;12.88;;;4.88;;
56075;SDS011;41951;49.022;12.066;2023-06-22T10:18:58;9.20;;;4.68;;
56075;SDS011;41951;49.022;12.066;2023-06-22T10:21:24;9.93;;;4.80;;
56075;SDS011;41951;49.022;12.066;2023-06-22T10:23:52;9.35;;;4.82;;
56075;SDS011;41951;49.022;12.066;2023-06-22T10:26:17;10.02;;;4.97;;
56075;SDS011;41951;49.022;12.066;2023-06-22T10:28:43;12.48;;;4.30;;
56075;SDS011;41951;49.022;12.066;2023-06-22T10:31:08;12.95;;;4.60;;
56075;SDS011;41951;49.022;12.066;2023-06-22T10:33:34;13.57;;;4.63;;
56075;SDS011;41951;49.022;12.066;2023-06-22T10:35:59;12.20;;;4.88;;
56075;SDS011;41951;49.022;12.066;2023-06-22T10:38:25;10.73;;;4.57;;
56075;SDS011;41951;49.022;12.066;2023-06-22T10:40:50;13.25;;;5.07;;
56075;SDS011;41951;49.022;12.066;2023-06-22T10:43:16;8.35;;;4.90;;
56075;SDS011;41951;49.022;12.066;2023-06-22T10:45:42;12.93;;;4.75;;
56075;SDS011;41951;49.022;12.066;2023-06-22T10:48:07;12.23;;;5.10;;
56075;SDS011;41951;49.022;12.066;2023-06-22T10:50:33;11.35;;;4.70;;
56075;SDS011;41951;49.022;12.066;2023-06-22T10:52:58;7.70;;;3.88;;
56075;SDS011;41951;49.022;12.066;2023-06-22T10:55:24;9.38;;;4.35;;
56075;SDS011;41951;49.022;12.066;2023-06-22T10:57:50;8.88;;;4.35;;
56075;SDS011;41951;49.022;12.066;2023-06-22T11:00:15;11.63;;;4.80;;
56075;SDS011;41951;49.022;12.066;2023-06-22T11:02:41;14.45;;;5.05;;
56075;SDS011;41951;49.022;12.066;2023-06-22T11:05:07;12.07;;;4.30;;
56075;SDS011;41951;49.022;12.066;2023-06-22T11:07:33;12.25;;;4.82;;
56075;SDS011;41951;49.022;12.066;2023-06-22T11:09:58;11.40;;;4.57;;
56075;SDS011;41951;49.022;12.066;2023-06-22T11:12:24;12.23;;;4.72;;
56075;SDS011;41951;49.022;12.066;2023-06-22T11:14:49;10.60;;;4.50;;
56075;SDS011;41951;49.022;12.066;2023-06-22T11:17:16;11.93;;;4.90;;
56075;SDS011;41951;49.022;12.066;2023-06-22T11:19:42;10.77;;;4.63;;
56075;SDS011;41951;49.022;12.066;2023-06-22T11:22:08;12.27;;;4.65;;
56075;SDS011;41951;49.022;12.066;2023-06-22T11:24:34;10.38;;;4.75;;
56075;SDS011;41951;49.022;12.066;2023-06-22T11:26:59;12.18;;;5.05;;
56075;SDS011;41951;49.022;12.066;2023-06-22T11:29:25;8.93;;;4.78;;
56075;SDS011;41951;49.022;12.066;2023-06-22T11:31:50;9.82;;;5.00;;
56075;SDS011;41951;49.022;12.066;2023-06-22T11:34:16;12.95;;;4.57;;
56075;SDS011;41951;49.022;12.066;2023-06-22T11:36:42;10.07;;;4.38;;
56075;SDS011;41951;49.022;12.066;2023-06-22T11:39:09;10.30;;;4.60;;
56075;SDS011;41951;49.022;12.066;2023-06-22T11:41:34;11.40;;;4.75;;
56075;SDS011;41951;49.022;12.066;2023-06-22T11:44:00;9.00;;;4.75;;
56075;SDS011;41951;49.022;12.066;2023-06-22T11:46:26;11.07;;;4.70;;
56075;SDS011;41951;49.022;12.066;2023-06-22T11:48:51;10.23;;;4.90;;
56075;SDS011;41951;49.022;12.066;2023-06-22T11:51:17;9.60;;;5.40;;
56075;SDS011;41951;49.022;12.066;2023-06-22T11:53:42;11.05;;;4.65;;
56075;SDS011;41951;49.022;12.066;2023-06-22T11:56:08;9.73;;;4.25;;
56075;SDS011;41951;49.022;12.066;2023-06-22T11:58:33;12.70;;;5.25;;
56075;SDS011;41951;49.022;12.066;2023-06-22T12:00:59;9.27;;;4.60;;
56075;SDS011;41951;49.022;12.066;2023-06-22T12:03:25;10.70;;;4.90;;
56075;SDS011;41951;49.022;12.066;2023-06-22T12:05:50;11.45;;;5.07;;
56075;SDS011;41951;49.022;12.066;2023-06-22T12:08:19;10.05;;;5.30;;
56075;SDS011;41951;49.022;12.066;2023-06-22T12:10:44;8.70;;;5.13;;
56075;SDS011;41951;49.022;12.066;2023-06-22T12:13:10;9.68;;;4.93;;
56075;SDS011;41951;49.022;12.066;2023-06-22T12:15:36;11.95;;;5.10;;
56075;SDS011;41951;49.022;12.066;2023-06-22T12:18:01;15.50;;;5.28;;
56075;SDS011;41951;49.022;12.066;2023-06-22T12:20:27;9.25;;;5.03;;
56075;SDS011;41951;49.022;12.066;2023-06-22T12:22:53;13.40;;;4.95;;
56075;SDS011;41951;49.022;12.066;2023-06-22T12:25:21;14.15;;;5.18;;
56075;SDS011;41951;49.022;12.066;2023-06-22T12:27:47;10.30;;;4.93;;
56075;SDS011;41951;49.022;12.066;2023-06-22T12:30:12;12.45;;;4.72;;
56075;SDS011;41951;49.022;12.066;2023-06-22T12:32:38;14.40;;;5.38;;
56075;SDS011;41951;49.022;12.066;2023-06-22T12:35:04;16.60;;;5.03;;
56075;SDS011;41951;49.022;12.066;2023-06-22T12:37:30;10.73;;;5.70;;
56075;SDS011;41951;49.022;12.066;2023-06-22T12:39:56;9.27;;;4.78;;
56075;SDS011;41951;49.022;12.066;2023-06-22T12:42:22;10.02;;;4.53;;
56075;SDS011;41951;49.022;12.066;2023-06-22T12:44:48;11.00;;;4.80;;
56075;SDS011;41951;49.022;12.066;2023-06-22T12:47:13;11.10;;;5.07;;
56075;SDS011;41951;49.022;12.066;2023-06-22T12:49:39;13.35;;;4.97;;
56075;SDS011;41951;49.022;12.066;2023-06-22T12:52:10;10.40;;;4.85;;
56075;SDS011;41951;49.022;12.066;2023-06-22T12:54:36;11.68;;;5.35;;
56075;SDS011;41951;49.022;12.066;2023-06-22T12:57:02;12.52;;;4.55;;
56075;SDS011;41951;49.022;12.066;2023-06-22T12:59:27;16.45;;;4.70;;
56075;SDS011;41951;49.022;12.066;2023-06-22T13:01:53;14.65;;;5.22;;
56075;SDS011;41951;49.022;12.066;2023-06-22T13:04:18;13.57;;;4.15;;
56075;SDS011;41951;49.022;12.066;2023-06-22T13:06:44;13.10;;;4.82;;
56075;SDS011;41951;49.022;12.066;2023-06-22T13:09:13;17.55;;;5.25;;
56075;SDS011;41951;49.022;12.066;2023-06-22T13:11:39;13.50;;;4.82;;
56075;SDS011;41951;49.022;12.066;2023-06-22T13:14:05;10.63;;;4.40;;
56075;SDS011;41951;49.022;12.066;2023-06-22T13:16:30;10.23;;;5.13;;
56075;SDS011;41951;49.022;12.066;2023-06-22T13:18:56;11.23;;;4.70;;
56075;SDS011;41951;49.022;12.066;2023-06-22T13:21:21;13.05;;;4.93;;
56075;SDS011;41951;49.022;12.066;2023-06-22T13:23:47;17.73;;;5.15;;
56075;SDS011;41951;49.022;12.066;2023-06-22T13:26:13;11.57;;;4.82;;
56075;SDS011;41951;49.022;12.066;2023-06-22T13:28:38;10.43;;;4.40;;
56075;SDS011;41951;49.022;12.066;2023-06-22T13:31:04;11.40;;;5.07;;
56075;SDS011;41951;49.022;12.066;2023-06-22T13:33:30;12.32;;;5.15;;
56075;SDS011;41951;49.022;12.066;2023-06-22T13:35:56;10.77;;;5.18;;
56075;SDS011;41951;49.022;12.066;2023-06-22T13:38:21;13.32;;;4.97;;
56075;SDS011;41951;49.022;12.066;2023-06-22T13:40:47;10.55;;;4.55;;
56075;SDS011;41951;49.022;12.066;2023-06-22T13:43:13;16.35;;;5.30;;
56075;SDS011;41951;49.022;12.066;2023-06-22T13:45:40;13.57;;;5.40;;
56075;SDS011;41951;49.022;12.066;2023-06-22T13:48:06;18.10;;;4.95;;
56075;SDS011;41951;49.022;12.066;2023-06-22T13:50:32;13.77;;;5.15;;
56075;SDS011;41951;49.022;12.066;2023-06-22T13:52:58;13.95;;;4.95;;
56075;SDS011;41951;49.022;12.066;2023-06-22T13:55:23;9.95;;;4.50;;
56075;SDS011;41951;49.022;12.066;2023-06-22T13:57:49;11.70;;;5.13;;
56075;SDS011;41951;49.022;12.066;2023-06-22T14:00:16;10.23;;;4.60;;
56075;SDS011;41951;49.022;12.066;2023-06-22T14:02:42;10.40;;;4.95;;
56075;SDS011;41951;49.022;12.066;2023-06-22T14:05:07;15.65;;;5.00;;
56075;SDS011;41951;49.022;12.066;2023-06-22T14:07:33;13.85;;;5.22;;
56075;SDS011;41951;49.022;12.066;2023-06-22T14:09:59;10.65;;;4.80;;
56075;SDS011;41951;49.022;12.066;2023-06-22T14:12:25;10.35;;;5.20;;
56075;SDS011;41951;49.022;12.066;2023-06-22T14:14:51;14.13;;;6.22;;
56075;SDS011;41951;49.022;12.066;2023-06-22T14:17:17;15.82;;;6.43;;
56075;SDS011;41951;49.022;12.066;2023-06-22T14:19:48;10.73;;;5.30;;
56075;SDS011;41951;49.022;12.066;2023-06-22T14:22:14;12.55;;;5.13;;
56075;SDS011;41951;49.022;12.066;2023-06-22T14:24:40;13.43;;;4.90;;
56075;SDS011;41951;49.022;12.066;2023-06-22T14:27:05;11.40;;;4.97;;